SCIF weather

Chollinco Airport
Llifen, Los Ríos Region, Chile

Public forecast

Using degrees Celsius for public forecast. Weather courtesy of forecast.io.

Closest aviation weather report (METAR) to Chollinco Airport

Closest report is Cañal Bajo Carlos - Hott Siebert Airport, 45.1 nm (83.5 km) WSW. Retrieved 2019/10/17 14:00 UTC (51 minutes ago):

SCJO 171400Z VRB01KT 9999 BKN035 13/03 Q1024

Closest aviation forecast (TAF) to Chollinco Airport

Closest forecast is Cañal Bajo Carlos - Hott Siebert Airport, 45.1 nm (83.5 km) WSW. Retrieved 2019/10/17 12:33 UTC (2 hours ago):

TAF SCJO 171012Z 1712/1724 VRB03KT 9999 BKN035 TN07/1712Z TX15/1718Z BECMG 1715/1717 SCT045 BECMG 1719/1721 21006KT